Tiempo atmosférico en la estación meteorológica de Cañaveral, Cáceres (373 m.)



Fecha
DESCASC
Temp. máxima en grados centígrados (hora)
DESCASC
Temp. mínima en grados centígrados (hora)
DESCASC
Temp. media en grados centígrados
DESCASC
Racha de viento máxima en m/sg (hora)
DESCASC
Velocidad máxima media en intervalos de 10 minutos(hora)
DESCASC
Precipitaciones diarias en mm
DESCASC
Precipitaciones de 00:00 a 06:00 en mm
DESCASC
Precipitaciones de 06:00 a 12:00 en mm
DESCASC
Precipitaciones de 12:00 a 18:00 en mm
DESCASC
Precipitaciones de 18:00 a 24:00 en mm
DESCASC
13-10-2019 24.9 (17:30) 15 (06:40) 19.9 8.89 (17:40) 5.28 (17:40) 0 0 0 0 0
12-10-2019 31 (16:30) 19.1 (23:59) 25.1 15 (18:10) 9.44 (17:20) 0 0 0 0 0
11-10-2019 29.8 (16:20) 18.4 (08:50) 24.1 10 (14:20) 6.39 (14:50) 0 0 0 0 0
10-10-2019 30.6 (17:50) 15.3 (00:00) 23 13.61 (11:30) 8.89 (00:50) 0 0 0 0 0
09-10-2019 29.1 (16:30) 19 (00:00) 24.1 15.28 (10:30) 10.83 (10:30) 0 0 0 0 0
08-10-2019 33.4 (17:10) 18.5 (00:00) 26 10.28 (00:20) 7.5 (00:20) 0 0 0 0 0
07-10-2019 31.2 (15:30) 19.4 (00:00) 25.3 9.44 (23:59) 6.94 (22:30) 0 0 0 0 0
06-10-2019 29.8 (18:00) 16.3 (00:00) 23 11.39 (22:20) 8.89 (22:30) 0 0 0 0 0
05-10-2019 28.7 (17:50) 13.6 (00:00) 21.2 12.5 (23:59) 8.33 (23:59) 0 0 0 0 0
04-10-2019 28.9 (17:20) 15.2 (00:00) 22 10.28 (01:20) 7.5 (01:20) 0 0 0 0 0
03-10-2019 29.2 (18:20) 14 (00:00) 21.6 10.28 (02:00) 7.5 (01:40) 0 0 0 0 0
02-10-2019 26.8 (17:30) 13.8 (00:00) 20.3 12.22 (10:00) 8.06 (15:10) 0 0 0 0 0
01-10-2019 26.6 (18:10) 15.2 (00:00) 20.9 12.5 (16:00) 8.06 (10:50) 0 0 0 0 0
30-09-2019 32.5 (17:20) 15.8 (00:00) 24.2 10 (01:50) 7.22 (01:30) 0 0 0 0 0
29-09-2019 31.6 (17:00) 15.2 (00:00) 23.4 6.39 (23:59) 4.72 (23:59) 0 0 0 0 0
28-09-2019 31.1 (17:40) 15.9 (00:00) 23.5 11.94 (02:30) 9.17 (02:30) 0 0 0 0 0
27-09-2019 30.3 (17:20) 16.4 (00:00) 23.3 10.56 (23:10) 8.33 (23:10) 0 0 0 0 0
26-09-2019 29.6 (16:50) 15.4 (00:00) 22.5 7.5 (01:40) 5.56 (01:30) 0 0 0 0 0
25-09-2019 26 (17:30) 14.5 (00:00) 20.3 10 (10:00) 6.39 (05:50) 0 0 0 0 0
24-09-2019 25.9 (16:00) 14.2 (00:00) 20 10.28 (19:00) 7.22 (19:00) 0 0 0 0 0
23-09-2019 25.8 (18:20) 12.3 (00:00) 19 6.94 (17:00) 3.89 (16:00) 0 0 0 0 0
22-09-2019 22.4 (17:20) 12.6 (00:00) 17.5 10 (16:30) 6.39 (01:20) 0 0 0 0 0
21-09-2019 19.4 (00:00) 16 (00:00) 17.7 10.56 (23:59) 6.94 (23:59) 30 0 7.4 10.6 12
20-09-2019 27.6 (16:30) 17.9 (00:00) 22.8 10.83 (15:50) 7.22 (15:10) 0 0 0 0 0
19-09-2019 30.8 (17:40) 18.1 (00:00) 24.4 7.5 (22:30) 4.72 (22:30) 0 0 0 0 0
18-09-2019 30.2 (17:10) 16.6 (00:00) 23.4 8.61 (02:30) 5.28 (02:30) 0 0 0 0 0
17-09-2019 31.3 (15:30) 17.9 (00:00) 24.6 16.94 (19:50) 9.72 (19:20) 17.8 0 0 4.6 13.2
16-09-2019 28.5 (14:00) 20.1 (00:00) 24.3 9.72 (05:40) 5.56 (10:10) 0.4 0 0 0.4 0

Gráficas

Temp. máximas Temp. mínimas Temp. medias Precipitaciones Rachas de viento máximas Velocidades máximas media en intervalos de 10 minutos

Datos horarios

Fecha y hora oficial Temperatura (ºC) Velocidad del viento (km/h) Dirección del viento Racha (km/h) Dirección de racha Precipitación (mm) Presión (hPa) Tendencia (hPa) Humedad (%)
2019-10-15 23:00:00 13.3 0 Calma 3 Oeste 0 -- -- 66
2019-10-15 22:00:00 13.6 0 Calma 7 Sur 0 -- -- 65
2019-10-15 21:00:00 14.3 0 Calma 3 Noroeste 0 -- -- 60
2019-10-15 20:00:00 15.7 2 Oeste 15 Oeste 0 -- -- 55
2019-10-15 19:00:00 16.9 10 Oeste 20 Sudoeste 0 -- -- 50
2019-10-15 18:00:00 18.2 14 Oeste 23 Sudoeste 0 -- -- 46
2019-10-15 17:00:00 18.6 13 Oeste 28 Oeste 0 -- -- 44
2019-10-15 16:00:00 18.1 14 Oeste 28 Sudoeste 0 -- -- 48
2019-10-15 15:00:00 17.1 13 Oeste 22 Sudoeste 0 -- -- 50
2019-10-15 14:00:00 17 11 Sudoeste 19 Sudoeste 0 -- -- 53
2019-10-15 13:00:00 15.9 11 Sur 18 Sur 0 -- -- 65
2019-10-15 12:00:00 14.6 5 Sudeste 11 Sur 0 -- -- 70
2019-10-15 11:00:00 12.5 2 Sudoeste 7 Sur 0 -- -- 78
2019-10-15 10:00:00 10.4 4 Sur 7 Este 0 -- -- 85
2019-10-15 09:00:00 8 4 Este 7 Nordeste 0 -- -- 86
2019-10-15 08:00:00 8.1 0 Calma 3 Oeste 0 -- -- 85
2019-10-15 07:00:00 7.8 0 Calma 7 Este 0 -- -- 85
2019-10-15 06:00:00 8.3 2 Este 9 Nordeste 0 -- -- 84
2019-10-15 05:00:00 8.6 5 Este 9 Oeste 0 -- -- 80
2019-10-15 04:00:00 8.9 2 Sur 9 Noroeste 0 -- -- 79
2019-10-15 03:00:00 9.6 3 Sudoeste 25 Oeste 0 -- -- 75
2019-10-15 02:00:00 12.1 13 Oeste 31 Oeste 0 -- -- 61
2019-10-15 01:00:00 12.1 15 Noroeste 35 Noroeste 0 -- -- 60
2019-10-15 00:00:00 12.2 16 Noroeste 37 Noroeste 0 -- -- 58
2019-10-14 23:00:00 12.5 15 Noroeste 40 Oeste 0 -- -- 63
2019-10-14 22:00:00 13 24 Noroeste 37 Oeste 0.2 -- -- 63
2019-10-14 21:00:00 13.4 21 Noroeste 30 Oeste 0 -- -- 65
2019-10-14 20:00:00 13.5 15 Oeste 22 Oeste 0 -- -- 73
2019-10-14 19:00:00 14.4 11 Oeste 27 Oeste 0 -- -- 81
2019-10-14 18:00:00 13.9 20 Oeste 39 Oeste 1 -- -- 81
2019-10-14 17:00:00 14.9 15 Sudoeste 26 Sudoeste 0 -- -- 85
2019-10-14 16:00:00 13.4 18 Oeste 35 Sudoeste 1 -- -- 88
2019-10-14 15:00:00 13.6 19 Sudoeste 46 Sudoeste 3.6 -- -- 92
2019-10-14 14:00:00 15.3 26 Sudoeste 40 Sur 0.2 -- -- 79
2019-10-14 13:00:00 16.4 19 Sudoeste 29 Sur 0 -- -- 67
2019-10-14 12:00:00 15.5 20 Sudoeste 35 Sudoeste 0 -- -- 70
2019-10-14 11:00:00 15.1 20 Sudoeste 30 Sudoeste 0 -- -- 78
2019-10-14 10:00:00 13.7 18 Sudoeste 28 Sudoeste 0 -- -- 89
2019-10-14 09:00:00 13 16 Sudoeste 27 Sudoeste 0.2 -- -- 91
2019-10-14 08:00:00 13.7 20 Oeste 45 Sudoeste 0.6 -- -- 90
2019-10-14 07:00:00 15.2 12 Sur 57 Nordeste 2.6 -- -- 89
2019-10-14 06:00:00 15.2 12 Sur 19 Sur 0 -- -- 80
2019-10-14 05:00:00 15.9 2 Sudoeste 12 Sudoeste 0 -- -- 75
2019-10-14 04:00:00 16 11 Sudoeste 18 Sudoeste 0 -- -- 75
2019-10-14 03:00:00 16.9 7 Sudoeste 14 Sudoeste 0 -- -- 70
2019-10-14 02:00:00 18.3 6 Sur 13 Sudoeste 0 -- -- 58
2019-10-14 01:00:00 19.3 3 Nordeste 7 Nordeste 0 -- -- 54
2019-10-14 00:00:00 19.3 3 Norte 10 Este 0 -- -- 53
2019-10-13 23:00:00 19.9 6 Nordeste 9 Este 0 -- -- 52
2019-10-13 22:00:00 20 0 Calma 6 Sudoeste 0 -- -- 52
2019-10-13 21:00:00 21.1 4 Sudoeste 13 Sudoeste 0 -- -- 48
2019-10-13 20:00:00 22.2 9 Sudoeste 23 Sudoeste 0 -- -- 45
2019-10-13 19:00:00 24.3 14 Sur 31 Sur 0 -- -- 40
2019-10-13 18:00:00 24.7 18 Sur 32 Sur 0 -- -- 40
2019-10-13 17:00:00 24 9 Sudeste 27 Sudeste 0 -- -- 45
2019-10-13 16:00:00 23.6 10 Sur 23 Sudoeste 0 -- -- 47
2019-10-13 15:00:00 22.6 14 Sudoeste 26 Sur 0 -- -- 51
2019-10-13 14:00:00 20.4 9 Sur 23 Sur 0 -- -- 57
2019-10-13 13:00:00 19.1 13 Sur 21 Sur 0 -- -- 63
2019-10-13 12:00:00 18.5 13 Sur 21 Sudoeste 0 -- -- 66
2019-10-13 11:00:00 17.2 14 Sur 22 Sur 0 -- -- 74
2019-10-13 10:00:00 16.2 10 Sur 14 Sur 0 -- -- 78
2019-10-13 09:00:00 15.7 2 Sur 13 Sudoeste 0 -- -- 77
2019-10-13 08:00:00 15.3 3 Oeste 6 Sudoeste 0 -- -- 76
2019-10-13 07:00:00 15 3 Sudoeste 8 Sudoeste 0 -- -- 76
2019-10-13 06:00:00 15.6 7 Sudoeste 10 Sudoeste 0 -- -- 73
2019-10-13 05:00:00 16.9 5 Sudoeste 9 Sudoeste 0 -- -- 70
2019-10-13 04:00:00 17.1 6 Sudoeste 12 Sudoeste 0 -- -- 70
2019-10-13 03:00:00 17.2 5 Sur 13 Sudoeste 0 -- -- 69
2019-10-13 02:00:00 17.1 10 Sudoeste 20 Oeste 0 -- -- 69
2019-10-13 01:00:00 17.8 15 Oeste 23 Oeste 0 -- -- 70
2019-10-13 00:00:00 19.1 12 Oeste 24 Oeste 0 -- -- 69
2019-10-12 23:00:00 20.9 19 Oeste 29 Oeste 0 -- -- 67
2019-10-12 22:00:00 23.4 14 Sudoeste 31 Sudoeste 0 -- -- 50
2019-10-12 21:00:00 25 21 Sudoeste 36 Sudoeste 0 -- -- 40
2019-10-12 20:00:00 26.4 27 Sudoeste 47 Sudoeste 0 -- -- 36
2019-10-12 19:00:00 29.3 26 Sudoeste 54 Sudoeste 0 -- -- 30
2019-10-12 18:00:00 30.4 33 Sudoeste 52 Sur 0 -- -- 27
2019-10-12 17:00:00 30.8 31 Sur 48 Sur 0 -- -- 26
2019-10-12 16:00:00 30.4 24 Sur 48 Sur 0 -- -- 27
2019-10-12 15:00:00 29.3 28 Sur 41 Sur 0 -- -- 29
2019-10-12 14:00:00 28.4 14 Sur 29 Sur 0 -- -- 34
2019-10-12 13:00:00 25.5 9 Este 20 Este 0 -- -- 43
2019-10-12 12:00:00 23.6 6 Sudeste 19 Este 0 -- -- 49
2019-10-12 11:00:00 21.9 11 Este 16 Este 0 -- -- 56
2019-10-12 10:00:00 19.7 8 Nordeste 12 Nordeste 0 -- -- 65
2019-10-12 09:00:00 19.7 2 Sudeste 10 Nordeste 0 -- -- 63
2019-10-12 08:00:00 19.7 6 Sudoeste 13 Sudoeste 0 -- -- 63
2019-10-12 07:00:00 20 9 Norte 12 Norte 0 -- -- 60
2019-10-12 06:00:00 20.7 5 Nordeste 9 Nordeste 0 -- -- 58
2019-10-12 05:00:00 21.1 6 Nordeste 9 Este 0 -- -- 57
2019-10-12 04:00:00 21.3 5 Nordeste 8 Este 0 -- -- 57
2019-10-12 03:00:00 21.7 2 Sur 8 Sudoeste 0 -- -- 55
2019-10-12 02:00:00 22.3 4 Sur 14 Sudoeste 0 -- -- 52
2019-10-12 01:00:00 22.5 13 Sudoeste 21 Sudoeste 0 -- -- 51
2019-10-12 00:00:00 23.5 3 Oeste 14 Sudoeste 0 -- -- 46
2019-10-11 23:00:00 24 5 Noroeste 9 Oeste 0 -- -- 44
2019-10-11 22:00:00 24.7 5 Sudeste 9 Sur 0 -- -- 41
2019-10-11 21:00:00 25.4 6 Sur 11 Sudoeste 0 -- -- 41
2019-10-11 20:00:00 26.1 8 Sudoeste 18 Sudoeste 0 -- -- 39
2019-10-11 19:00:00 27.5 14 Sur 22 Sur 0 -- -- 36
2019-10-11 18:00:00 28.8 13 Sur 24 Sur 0 -- -- 35
2019-10-11 17:00:00 28.7 17 Sur 28 Sur 0 -- -- 37
2019-10-11 16:00:00 29.1 17 Sur 32 Sur 0 -- -- 36
2019-10-11 15:00:00 28.7 19 Sur 36 Sudeste 0 -- -- 36
2019-10-11 14:00:00 27.7 16 Sudeste 27 Este 0 -- -- 41
2019-10-11 13:00:00 26.4 15 Este 30 Este 0 -- -- 45
2019-10-11 12:00:00 24.5 12 Este 27 Este 0 -- -- 48
2019-10-11 11:00:00 22.4 17 Este 26 Este 0 -- -- 56
2019-10-11 10:00:00 19.9 12 Este 22 Nordeste 0 -- -- 63
2019-10-11 09:00:00 18.5 10 Nordeste 19 Nordeste 0 -- -- 66
2019-10-11 08:00:00 19.1 13 Nordeste 19 Nordeste 0 -- -- 61
2019-10-11 07:00:00 19.9 8 Nordeste 18 Nordeste 0 -- -- 58
2019-10-11 06:00:00 20.4 11 Nordeste 24 Nordeste 0 -- -- 55
2019-10-11 05:00:00 20.8 13 Nordeste 22 Nordeste 0 -- -- 50
2019-10-11 04:00:00 20.9 7 Este 11 Este 0 -- -- 48
2019-10-11 03:00:00 22.2 5 Nordeste 12 Nordeste 0 -- -- 45
2019-10-11 02:00:00 23 4 Nordeste 9 Nordeste 0 -- -- 42
2019-10-11 01:00:00 23.3 5 Nordeste 10 Nordeste 0 -- -- 42
2019-10-11 00:00:00 24 7 Nordeste 13 Nordeste 0 -- -- 40
2019-10-10 23:00:00 24.3 8 Nordeste 13 Nordeste 0 -- -- 39
2019-10-10 22:00:00 24.7 9 Nordeste 14 Nordeste 0 -- -- 39
2019-10-10 21:00:00 25 8 Nordeste 18 Nordeste 0 -- -- 34
2019-10-10 20:00:00 26.3 5 Norte 7 Norte 0 -- -- 27
2019-10-10 19:00:00 30.1 2 Oeste 14 Sudoeste 0 -- -- 22
2019-10-10 18:00:00 30.5 10 Sur 18 Sudoeste 0 -- -- 22
2019-10-10 17:00:00 29.8 10 Sur 23 Sur 0 -- -- 25
2019-10-10 16:00:00 29 9 Sudeste 26 Sudeste 0 -- -- 29
2019-10-10 15:00:00 28.1 10 Sudeste 26 Este 0 -- -- 32
2019-10-10 14:00:00 26.7 12 Este 27 Este 0 -- -- 40
2019-10-10 13:00:00 24.6 18 Este 36 Este 0 -- -- 43
2019-10-10 12:00:00 22.9 23 Este 49 Este 0 -- -- 49
2019-10-10 11:00:00 21.3 21 Este 41 Este 0 -- -- 52
2019-10-10 10:00:00 19.3 22 Este 35 Este 0 -- -- 52
2019-10-10 09:00:00 17.7 12 Nordeste 19 Nordeste 0 -- -- 54
2019-10-10 08:00:00 18 10 Nordeste 15 Nordeste 0 -- -- 49
2019-10-10 07:00:00 15.3 3 Noroeste 14 Nordeste 0 -- -- 49
2019-10-10 06:00:00 18 9 Nordeste 17 Nordeste 0 -- -- 43
2019-10-10 05:00:00 19.2 11 Nordeste 26 Norte 0 -- -- 39
2019-10-10 04:00:00 19.3 16 Norte 27 Norte 0 -- -- 39
2019-10-10 03:00:00 19.1 14 Este 41 Norte 0 -- -- 39
2019-10-10 02:00:00 20.5 31 Norte 43 Norte 0 -- -- 34
2019-10-10 01:00:00 21.2 30 Norte 42 Norte 0 -- -- 33
2019-10-10 00:00:00 21.5 30 Norte 42 Norte 0 -- -- 33
2019-10-09 23:00:00 21.6 27 Norte 41 Norte 0 -- -- 36
2019-10-09 22:00:00 22.7 26 Norte 34 Norte 0 -- -- 36
2019-10-09 21:00:00 23.7 17 Noroeste 27 Noroeste 0 -- -- 37
2019-10-09 20:00:00 25.4 16 Noroeste 24 Noroeste 0 -- -- 32
2019-10-09 19:00:00 28.1 13 Noroeste 23 Noroeste 0 -- -- 19
2019-10-09 18:00:00 28.9 13 Noroeste 24 Noroeste 0 -- -- 17
2019-10-09 17:00:00 28.9 13 Noroeste 24 Norte 0 -- -- 18
2019-10-09 16:00:00 28.7 8 Norte 27 Noroeste 0 -- -- 24
2019-10-09 15:00:00 27.8 12 Noroeste 24 Norte 0 -- -- 27
2019-10-09 14:00:00 26.9 13 Norte 28 Noroeste 0 -- -- 33
2019-10-09 13:00:00 24.8 23 Norte 41 Norte 0 -- -- 42
2019-10-09 12:00:00 22.7 26 Norte 47 Norte 0 -- -- 49
2019-10-09 11:00:00 20.8 37 Norte 55 Norte 0 -- -- 61
2019-10-09 10:00:00 19.9 31 Norte 47 Norte 0 -- -- 65
2019-10-09 09:00:00 19.1 25 Norte 37 Norte 0 -- -- 70
2019-10-09 08:00:00 19.4 14 Norte 37 Norte 0 -- -- 70
2019-10-09 07:00:00 19.9 18 Norte 29 Norte 0 -- -- 68
2019-10-09 06:00:00 20.7 12 Norte 21 Norte 0 -- -- 65
2019-10-09 05:00:00 21.5 6 Nordeste 16 Este 0 -- -- 62
2019-10-09 04:00:00 22.2 3 Sur 22 Noroeste 0 -- -- 59
2019-10-09 03:00:00 22.4 12 Noroeste 31 Norte 0 -- -- 59
2019-10-09 02:00:00 24.3 21 Norte 32 Norte 0 -- -- 51
2019-10-09 01:00:00 24.3 6 Sudoeste 27 Norte 0 -- -- 49
2019-10-09 00:00:00 25.2 19 Norte 32 Norte 0 -- -- 48
2019-10-08 23:00:00 26 22 Norte 33 Norte 0 -- -- 44
2019-10-08 22:00:00 26.3 6 Norte 26 Norte 0 -- -- 33
2019-10-08 21:00:00 26 0 Calma 8 Norte 0 -- -- 34
2019-10-08 20:00:00 28.7 3 Noroeste 14 Noroeste 0 -- -- 29
2019-10-08 19:00:00 31.3 12 Norte 22 Noroeste 0 -- -- 26
2019-10-08 18:00:00 33 8 Sudoeste 18 Sudoeste 0 -- -- 23
2019-10-08 17:00:00 33 10 Sur 19 Sudoeste 0 -- -- 24
2019-10-08 16:00:00 32.7 6 Sur 19 Sudoeste 0 -- -- 25
2019-10-08 15:00:00 31.3 8 Sudeste 14 Sur 0 -- -- 26
2019-10-08 14:00:00 30 7 Este 15 Sur 0 -- -- 27
2019-10-08 13:00:00 28.3 10 Este 24 Este 0 -- -- 30
2019-10-08 12:00:00 26.4 19 Este 29 Este 0 -- -- 34
2019-10-08 11:00:00 24.2 13 Nordeste 24 Nordeste 0 -- -- 38
2019-10-08 10:00:00 22.6 6 Este 14 Nordeste 0 -- -- 41
2019-10-08 09:00:00 18.7 6 Nordeste 13 Nordeste 0 -- -- 49
2019-10-08 08:00:00 18.6 6 Nordeste 11 Nordeste 0 -- -- 47
2019-10-08 07:00:00 18.8 4 Norte 13 Este 0 -- -- 46
2019-10-08 06:00:00 19.9 5 Este 8 Este 0 -- -- 43
2019-10-08 05:00:00 19.8 3 Sudeste 9 Sudoeste 0 -- -- 43
2019-10-08 04:00:00 23.1 4 Norte 20 Nordeste 0 -- -- 34
2019-10-08 03:00:00 24.3 6 Nordeste 25 Noroeste 0 -- -- 31
2019-10-08 02:00:00 25.3 22 Norte 32 Norte 0 -- -- 31
2019-10-08 01:00:00 25.4 22 Norte 37 Norte 0 -- -- 30
2019-10-08 00:00:00 25.9 22 Norte 34 Noroeste 0 -- -- 30
2019-10-07 23:00:00 26.6 25 Norte 33 Norte 0 -- -- 29
2019-10-07 22:00:00 27.1 21 Norte 29 Noroeste 0 -- -- 29
2019-10-07 21:00:00 27.7 18 Norte 25 Norte 0 -- -- 26
2019-10-07 20:00:00 28.2 14 Norte 17 Norte 0 -- -- 25
2019-10-07 19:00:00 30.1 8 Norte 17 Noroeste 0 -- -- 24
2019-10-07 18:00:00 30.4 11 Noroeste 20 Nordeste 0 -- -- 23
2019-10-07 17:00:00 30.1 12 Norte 22 Noroeste 0 -- -- 23
2019-10-07 16:00:00 30.6 14 Norte 22 Norte 0 -- -- 24
2019-10-07 15:00:00 30.5 10 Noroeste 17 Noroeste 0 -- -- 25
2019-10-07 14:00:00 29.2 7 Nordeste 16 Norte 0 -- -- 25
2019-10-07 13:00:00 27.5 4 Este 11 Nordeste 0 -- -- 28
2019-10-07 12:00:00 25.3 10 Norte 27 Norte 0 -- -- 31
2019-10-07 11:00:00 23.9 18 Norte 27 Norte 0 -- -- 33
2019-10-07 10:00:00 22.3 15 Norte 27 Norte 0 -- -- 37
2019-10-07 09:00:00 20.4 2 Este 33 Este 0 -- -- 43
2019-10-07 08:00:00 20.2 15 Nordeste 24 Nordeste 0 -- -- 45
2019-10-07 07:00:00 19.5 12 Este 28 Nordeste 0 -- -- 49
2019-10-07 06:00:00 19.8 9 Nordeste 32 Norte 0 -- -- 47
2019-10-07 05:00:00 20.2 21 Norte 29 Norte 0 -- -- 45
2019-10-07 04:00:00 20.1 7 Este 17 Nordeste 0 -- -- 41
2019-10-07 03:00:00 20.9 6 Este 20 Nordeste 0 -- -- 39
2019-10-07 02:00:00 22.6 15 Norte 32 Norte 0 -- -- 35
2019-10-07 01:00:00 22.6 22 Norte 30 Norte 0 -- -- 35
2019-10-07 00:00:00 22.4 16 Norte 24 Norte 0 -- -- 32
2019-10-06 23:00:00 24.1 22 Norte 41 Noroeste 0 -- -- 30
2019-10-06 22:00:00 24.9 23 Noroeste 35 Noroeste 0 -- -- 31
2019-10-06 21:00:00 25.8 17 Noroeste 26 Noroeste 0 -- -- 28
2019-10-06 20:00:00 26.5 12 Noroeste 18 Noroeste 0 -- -- 28
2019-10-06 19:00:00 28.9 12 Noroeste 24 Noroeste 0 -- -- 24
2019-10-06 18:00:00 29.8 6 Noroeste 21 Noroeste 0 -- -- 26
2019-10-06 17:00:00 29.2 13 Noroeste 22 Noroeste 0 -- -- 31
2019-10-06 16:00:00 28.5 10 Noroeste 23 Norte 0 -- -- 32
2019-10-06 15:00:00 27.3 6 Nordeste 36 Noroeste 0 -- -- 33
2019-10-06 14:00:00 26.5 13 Norte 19 Norte 0 -- -- 32
2019-10-06 13:00:00 24.1 12 Norte 27 Norte 0 -- -- 38
2019-10-06 12:00:00 22.1 19 Norte 31 Norte 0 -- -- 45
2019-10-06 11:00:00 21.1 9 Norte 22 Norte 0 -- -- 49
2019-10-06 10:00:00 19 13 Norte 22 Norte 0 -- -- 53
2019-10-06 09:00:00 17.6 17 Norte 23 Norte 0 -- -- 57
2019-10-06 08:00:00 16.8 8 Norte 21 Norte 0 -- -- 57
2019-10-06 07:00:00 17.7 14 Norte 32 Norte 0 -- -- 54
2019-10-06 06:00:00 18 4 Norte 14 Norte 0 -- -- 51
2019-10-06 05:00:00 16.3 4 Oeste 15 Nordeste 0 -- -- 60
2019-10-06 04:00:00 18.1 4 Nordeste 12 Oeste 0 -- -- 49
2019-10-06 03:00:00 18.1 3 Nordeste 10 Nordeste 0 -- -- 50
2019-10-06 02:00:00 20.5 4 Nordeste 32 Norte 0 -- -- 43
2019-10-06 01:00:00 21.1 28 Norte 40 Noroeste 0 -- -- 40
2019-10-06 00:00:00 21.7 30 Norte 45 Norte 0 -- -- 40
2019-10-05 23:00:00 20.7 8 Oeste 20 Sudoeste 0 -- -- 50
2019-10-05 22:00:00 22.8 0 Calma 8 Oeste 0 -- -- 46
2019-10-05 21:00:00 23.4 3 Oeste 6 Noroeste 0 -- -- 45
2019-10-05 20:00:00 25.6 7 Oeste 18 Oeste 0 -- -- 40
2019-10-05 19:00:00 28 12 Oeste 19 Oeste 0 -- -- 36
2019-10-05 18:00:00 28.7 13 Sudoeste 21 Sudoeste 0 -- -- 36
2019-10-05 17:00:00 28.4 10 Sudoeste 18 Sudoeste 0 -- -- 37
2019-10-05 16:00:00 27.6 7 Sudoeste 18 Oeste 0 -- -- 40
2019-10-05 15:00:00 26.1 9 Sudoeste 16 Sudoeste 0 -- -- 44
2019-10-05 14:00:00 24.6 10 Oeste 18 Sudoeste 0 -- -- 48
2019-10-05 13:00:00 23.6 9 Sudoeste 16 Sudoeste 0 -- -- 52
2019-10-05 12:00:00 21.1 5 Oeste 11 Sudoeste 0 -- -- 59
2019-10-05 11:00:00 18.4 5 Sudoeste 9 Oeste 0 -- -- 70
2019-10-05 10:00:00 16.3 6 Sudoeste 8 Sudoeste 0 -- -- 78
2019-10-05 09:00:00 14.1 0 Calma 3 Este 0 -- -- 86
2019-10-05 08:00:00 13.8 2 Este 5 Este 0 -- -- 85
2019-10-05 07:00:00 14.5 0 Calma 5 Nordeste 0 -- -- 83
2019-10-05 06:00:00 15.4 3 Sur 8 Oeste 0 -- -- 79
2019-10-05 05:00:00 16.2 2 Sudoeste 8 Noroeste 0 -- -- 74
2019-10-05 04:00:00 18.7 4 Norte 11 Nordeste 0 -- -- 65
2019-10-05 03:00:00 17.1 2 Sur 15 Sudoeste 0 -- -- 72
2019-10-05 02:00:00 18.2 6 Sur 22 Sudoeste 0 -- -- 68
2019-10-05 01:00:00 19.6 11 Oeste 28 Sudoeste 0 -- -- 64
2019-10-05 00:00:00 20.4 15 Sudoeste 23 Oeste 0 -- -- 61
2019-10-04 23:00:00 21.4 15 Oeste 23 Sudoeste 0 -- -- 57
2019-10-04 22:00:00 22.9 2 Norte 3 Norte 0 -- -- 46
2019-10-04 21:00:00 24.3 2 Norte 2 Norte 0 -- -- 43
2019-10-04 20:00:00 26.8 2 Oeste 17 Oeste 0 -- -- 37
2019-10-04 19:00:00 28.3 8 Sudoeste 21 Sudoeste 0 -- -- 34
2019-10-04 18:00:00 28.8 10 Sudoeste 19 Oeste 0 -- -- 35
2019-10-04 17:00:00 28.2 4 Nordeste 15 Sudoeste 0 -- -- 34
2019-10-04 16:00:00 27.5 8 Norte 22 Noroeste 0 -- -- 34
2019-10-04 15:00:00 27.5 12 Oeste 18 Oeste 0 -- -- 35
2019-10-04 14:00:00 26.4 6 Sudoeste 21 Noroeste 0 -- -- 42
2019-10-04 13:00:00 24.2 9 Nordeste 17 Nordeste 0 -- -- 46
2019-10-04 12:00:00 22.6 4 Oeste 10 Sudoeste 0 -- -- 53
2019-10-04 11:00:00 20.3 4 Sudeste 9 Oeste 0 -- -- 58
2019-10-04 10:00:00 18.4 3 Sudeste 7 Sudeste 0 -- -- 64
2019-10-04 09:00:00 15.2 4 Este 8 Este 0 -- -- 75
2019-10-04 08:00:00 16.2 0 Calma 8 Sudoeste 0 -- -- 72
2019-10-04 07:00:00 16.9 4 Oeste 19 Este 0 -- -- 71
2019-10-04 06:00:00 18.2 5 Nordeste 15 Norte 0 -- -- 67
2019-10-04 05:00:00 18.6 10 Nordeste 20 Nordeste 0 -- -- 64
2019-10-04 04:00:00 18.3 8 Oeste 32 Norte -- -- -- 65
2019-10-04 03:00:00 20.6 24 Norte 37 Norte 0 -- -- 56
2019-10-04 02:00:00 20.7 24 Norte 37 Norte 0 -- -- 54
2019-10-04 01:00:00 21.5 25 Norte 35 Noroeste 0 -- -- 46
2019-10-04 00:00:00 20.9 3 Sudeste 24 Oeste 0 -- -- 44
2019-10-03 23:00:00 21.8 18 Oeste 24 Oeste 0 -- -- 40
2019-10-03 22:00:00 23.2 8 Oeste 12 Oeste 0 -- -- 31
2019-10-03 21:00:00 24.1 8 Oeste 9 Oeste 0 -- -- 29
2019-10-03 20:00:00 26.3 9 Oeste 19 Oeste 0 -- -- 27
2019-10-03 19:00:00 28.4 11 Oeste 26 Oeste 0 -- -- 25
2019-10-03 18:00:00 28.6 14 Oeste 26 Oeste 0 -- -- 26
2019-10-03 17:00:00 28.3 12 Noroeste 26 Oeste 0 -- -- 27
2019-10-03 16:00:00 27.6 9 Noroeste 32 Oeste 0 -- -- 28
2019-10-03 15:00:00 26.6 13 Norte 26 Noroeste 0 -- -- 27
2019-10-03 14:00:00 26.2 10 Oeste 26 Oeste 0 -- -- 29
2019-10-03 13:00:00 24.7 5 Oeste 19 Sur 0 -- -- 35
2019-10-03 12:00:00 22.7 5 Nordeste 16 Norte 0 -- -- 36
2019-10-03 11:00:00 20.6 3 Sur 8 Sur 0 -- -- 46
2019-10-03 10:00:00 17.1 4 Oeste 6 Oeste 0 -- -- 53
2019-10-03 09:00:00 14.4 2 Norte 3 Norte 0 -- -- 61
2019-10-03 08:00:00 14.5 2 Sudoeste 12 Nordeste 0 -- -- 59
2019-10-03 07:00:00 16.7 10 Norte 13 Norte 0 -- -- 48
2019-10-03 06:00:00 16.3 4 Sudoeste 23 Norte 0 -- -- 52
2019-10-03 05:00:00 18.5 17 Norte 24 Norte 0 -- -- 42
2019-10-03 04:00:00 18.7 10 Nordeste 32 Norte 0 -- -- 42
2019-10-03 03:00:00 19.2 21 Norte 37 Norte 0 -- -- 41
2019-10-03 02:00:00 19.1 27 Norte 37 Norte 0 -- -- 41
2019-10-03 01:00:00 17.9 17 Norte 22 Norte 0 -- -- 46
2019-10-03 00:00:00 19 15 Norte 19 Norte 0 -- -- 44
2019-10-02 23:00:00 19.2 13 Norte 17 Norte 0 -- -- 44
2019-10-02 22:00:00 20.1 13 Norte 24 Noroeste 0 -- -- 41
2019-10-02 21:00:00 22.5 14 Noroeste 26 Norte 0 -- -- 34
2019-10-02 20:00:00 23.6 14 Noroeste 27 Noroeste 0 -- -- 31
2019-10-02 19:00:00 25.6 15 Noroeste 31 Noroeste 0 -- -- 30
2019-10-02 18:00:00 26.4 13 Noroeste 28 Noroeste 0 -- -- 30
2019-10-02 17:00:00 26.2 16 Noroeste 31 Noroeste 0 -- -- 31
2019-10-02 16:00:00 25.7 15 Noroeste 42 Norte 0 -- -- 30
2019-10-02 15:00:00 24.3 26 Norte 38 Norte 0 -- -- 31
2019-10-02 14:00:00 23.1 12 Noroeste 29 Noroeste 0 -- -- 37
2019-10-02 13:00:00 21.1 15 Noroeste 32 Noroeste 0 -- -- 44
2019-10-02 12:00:00 19.1 11 Noroeste 30 Norte 0 -- -- 51
2019-10-02 11:00:00 17.1 21 Norte 41 Norte 0 -- -- 57
2019-10-02 10:00:00 15.3 26 Norte 44 Norte 0 -- -- 64
2019-10-02 09:00:00 14 4 Sur 30 Norte 0 -- -- 71
2019-10-02 08:00:00 13.9 7 Nordeste 26 Norte 0 -- -- 72
2019-10-02 07:00:00 14.5 10 Nordeste 25 Noroeste 0 -- -- 69
2019-10-02 06:00:00 14.3 2 Nordeste 21 Noroeste 0 -- -- 69
2019-10-02 05:00:00 14.9 6 Nordeste 30 Norte 0 -- -- 68
2019-10-02 04:00:00 16.2 14 Noroeste 41 Noroeste 0 -- -- 65
2019-10-02 03:00:00 16.9 27 Norte 38 Norte 0 -- -- 63
2019-10-02 02:00:00 17.8 27 Norte 36 Norte 0 -- -- 61
2019-10-02 01:00:00 18.6 26 Norte 36 Norte 0 -- -- 58
2019-10-02 00:00:00 19.7 24 Noroeste 35 Noroeste 0 -- -- 51
2019-10-01 23:00:00 21.1 21 Noroeste 36 Noroeste 0 -- -- 48
2019-10-01 22:00:00 21.9 24 Oeste 39 Oeste 0 -- -- 46
2019-10-01 21:00:00 22.4 10 Oeste 19 Noroeste 0 -- -- 41
2019-10-01 20:00:00 24.8 11 Noroeste 27 Noroeste 0 -- -- 39
2019-10-01 19:00:00 26 15 Noroeste 39 Oeste 0 -- -- 36
2019-10-01 18:00:00 26.4 12 Noroeste 32 Noroeste 0 -- -- 36
2019-10-01 17:00:00 25.7 20 Noroeste 37 Oeste 0 -- -- 40
2019-10-01 16:00:00 26 24 Noroeste 45 Oeste 0 -- -- 41
2019-10-01 15:00:00 24.8 17 Noroeste 36 Noroeste 0 -- -- 48
2019-10-01 14:00:00 24.2 18 Noroeste 32 Noroeste 0 -- -- 50
2019-10-01 13:00:00 22.8 15 Noroeste 33 Noroeste 0 -- -- 51
2019-10-01 12:00:00 21.5 15 Noroeste 36 Norte 0 -- -- 56
2019-10-01 11:00:00 19.9 27 Norte 41 Norte 0 -- -- 63
2019-10-01 10:00:00 18.4 6 Oeste 18 Norte 0 -- -- 72
2019-10-01 09:00:00 15.5 3 Sur 13 Oeste 0 -- -- 91
2019-10-01 08:00:00 15.6 4 Sur 18 Oeste 0 -- -- 89
2019-10-01 07:00:00 16.3 9 Oeste 20 Oeste 0 -- -- 86
2019-10-01 06:00:00 17.8 18 Oeste 26 Sudoeste 0 -- -- 80
2019-10-01 05:00:00 18.8 15 Oeste 27 Oeste 0 -- -- 74
2019-10-01 04:00:00 19.4 6 Oeste 9 Sudoeste 0 -- -- 58
2019-10-01 03:00:00 20.6 4 Sudoeste 18 Sudoeste 0 -- -- 56
2019-10-01 02:00:00 20.4 10 Sudoeste 15 Sudoeste 0 -- -- 50
2019-10-01 01:00:00 21.9 5 Sudoeste 20 Oeste 0 -- -- 44
2019-10-01 00:00:00 24.4 17 Oeste 27 Noroeste 0 -- -- 42
2019-09-30 23:00:00 24.1 10 Oeste 24 Oeste 0 -- -- 29
2019-09-30 22:00:00 24.7 5 Oeste 13 Oeste 0 -- -- 25
2019-09-30 21:00:00 25.5 3 Nordeste 10 Sudoeste 0 -- -- 21
2019-09-30 20:00:00 28.3 10 Sudoeste 21 Sudoeste 0 -- -- 17
2019-09-30 19:00:00 31.4 14 Sudoeste 28 Sudoeste 0 -- -- 14
2019-09-30 18:00:00 32.4 14 Oeste 26 Sudoeste 0 -- -- 20
2019-09-30 17:00:00 31.9 11 Sur 22 Sur 0 -- -- 20
2019-09-30 16:00:00 31.1 8 Sur 20 Sur 0 -- -- 21
2019-09-30 15:00:00 30.1 6 Sur 17 Sudeste 0 -- -- 24
2019-09-30 14:00:00 28.9 6 Sur 15 Sur 0 -- -- 26
2019-09-30 13:00:00 26.8 6 Este 13 Sudeste 0 -- -- 28
2019-09-30 12:00:00 24.9 6 Sudeste 12 Sudeste 0 -- -- 30
2019-09-30 11:00:00 22.8 6 Sudeste 10 Este 0 -- -- 38
2019-09-30 10:00:00 20.2 3 Este 5 Este 0 -- -- 45
2019-09-30 09:00:00 16.9 3 Nordeste 7 Este 0 -- -- 64
2019-09-30 08:00:00 15.8 6 Este 10 Este 0 -- -- 65
2019-09-30 07:00:00 17.8 3 Sur 14 Norte 0 -- -- 56
2019-09-30 06:00:00 20.8 9 Nordeste 22 Nordeste 0 -- -- 54
2019-09-30 05:00:00 21.4 12 Norte 34 Norte 0 -- -- 50
2019-09-30 04:00:00 22 20 Norte 28 Norte 0 -- -- 46
2019-09-30 03:00:00 21.8 13 Noroeste 27 Norte 0 -- -- 45
2019-09-30 02:00:00 22.8 23 Norte 36 Norte 0 -- -- 40
2019-09-30 01:00:00 23.3 20 Norte 27 Norte 0 -- -- 36
2019-09-30 00:00:00 23.9 17 Noroeste 23 Norte 0 -- -- 27
2019-09-29 23:00:00 24.2 2 Noroeste 5 Oeste 0 -- -- 24
2019-09-29 22:00:00 24.3 2 Norte 4 Norte 0 -- -- 25
2019-09-29 21:00:00 25.1 2 Noroeste 5 Norte 0 -- -- 25
2019-09-29 20:00:00 28.2 3 Norte 12 Oeste 0 -- -- 23
2019-09-29 19:00:00 30.7 4 Oeste 19 Noroeste 0 -- -- 19
2019-09-29 18:00:00 30.5 10 Noroeste 20 Oeste 0 -- -- 18
2019-09-29 17:00:00 31.6 11 Sudoeste 22 Oeste 0 -- -- 18
2019-09-29 16:00:00 30.9 14 Sudoeste 22 Sudoeste 0 -- -- 19
2019-09-29 15:00:00 29.7 8 Oeste 19 Oeste 0 -- -- 23
2019-09-29 14:00:00 28.5 7 Sur 17 Sudoeste 0 -- -- 28
2019-09-29 13:00:00 27 5 Sudoeste 12 Sudoeste 0 -- -- 34
2019-09-29 12:00:00 24.3 4 Sur 8 Oeste 0 -- -- 40
2019-09-29 11:00:00 21.1 4 Sudoeste 8 Oeste 0 -- -- 49
2019-09-29 10:00:00 19.3 4 Sudeste 5 Sudeste 0 -- -- 51
2019-09-29 09:00:00 15.6 0 Calma 8 Este 0 -- -- 63
2019-09-29 08:00:00 15.2 9 Este 11 Este 0 -- -- 63
2019-09-29 07:00:00 15.8 0 Calma 6 Oeste 0 -- -- 64
2019-09-29 06:00:00 16.9 0 Calma 3 Sudoeste 0 -- -- 57
2019-09-29 05:00:00 18.1 2 Sudoeste 5 Oeste 0 -- -- 54
2019-09-29 04:00:00 19.5 5 Oeste 9 Nordeste 0 -- -- 45
2019-09-29 03:00:00 20.2 3 Noroeste 7 Nordeste 0 -- -- 43
2019-09-29 02:00:00 20.1 4 Nordeste 5 Nordeste 0 -- -- 41
2019-09-29 01:00:00 21.1 3 Oeste 10 Oeste 0 -- -- 43
2019-09-29 00:00:00 23.5 3 Oeste 12 Sudoeste 0 -- -- 36
2019-09-28 23:00:00 24.1 9 Noroeste 17 Norte 0 -- -- 32
2019-09-28 22:00:00 24.4 13 Norte 21 Norte 0 -- -- 34
2019-09-28 21:00:00 24.6 17 Norte 21 Norte 0 -- -- 37
2019-09-28 20:00:00 27 13 Norte 17 Norte 0 -- -- 32
2019-09-28 19:00:00 29.9 4 Este 14 Oeste 0 -- -- 24
2019-09-28 18:00:00 30.5 5 Noroeste 19 Oeste 0 -- -- 23
2019-09-28 17:00:00 30.9 7 Oeste 18 Noroeste 0 -- -- 22
2019-09-28 16:00:00 29.6 7 Sudeste 18 Sur 0 -- -- 23
2019-09-28 15:00:00 28.9 4 Este 16 Sudoeste 0 -- -- 26
2019-09-28 14:00:00 27.7 8 Sudeste 17 Nordeste 0 -- -- 29
2019-09-28 13:00:00 26.2 10 Sudeste 21 Este 0 -- -- 35
2019-09-28 12:00:00 24.3 15 Este 24 Este 0 -- -- 38
2019-09-28 11:00:00 22.2 6 Este 14 Este 0 -- -- 47
2019-09-28 10:00:00 19.7 5 Este 12 Nordeste 0 -- -- 56
2019-09-28 09:00:00 16.7 9 Nordeste 12 Nordeste 0 -- -- 68
2019-09-28 08:00:00 16.3 0 Calma 13 Norte 0 -- -- 73
2019-09-28 07:00:00 18 9 Norte 22 Norte 0 -- -- 64
2019-09-28 06:00:00 18.4 10 Norte 33 Norte 0 -- -- 63
2019-09-28 05:00:00 18.8 17 Norte 37 Norte 0 -- -- 62
2019-09-28 04:00:00 19.2 27 Norte 39 Norte 0 -- -- 61
2019-09-28 03:00:00 19.8 28 Norte 43 Norte 0 -- -- 60
2019-09-28 02:00:00 20.8 29 Norte 38 Noroeste 0 -- -- 56
2019-09-28 01:00:00 21 25 Norte 40 Norte 0 -- -- 56
2019-09-28 00:00:00 21.4 30 Norte 38 Norte 0 -- -- 55
2019-09-27 23:00:00 22.9 26 Norte 35 Norte 0 -- -- 45
2019-09-27 22:00:00 23.5 17 Norte 20 Norte 0 -- -- 37
2019-09-27 21:00:00 24 17 Norte 22 Norte 0 -- -- 33
2019-09-27 20:00:00 26.3 14 Norte 21 Norte 0 -- -- 29
2019-09-27 19:00:00 28.9 12 Norte 22 Norte 0 -- -- 24
2019-09-27 18:00:00 29.5 8 Norte 27 Oeste 0 -- -- 23
2019-09-27 17:00:00 29.9 13 Noroeste 26 Norte 0 -- -- 22
2019-09-27 16:00:00 29.3 13 Noroeste 28 Oeste 0 -- -- 22
2019-09-27 15:00:00 28.7 14 Noroeste 29 Noroeste 0 -- -- 23
2019-09-27 14:00:00 28.2 6 Noroeste 16 Norte 0 -- -- 27
2019-09-27 13:00:00 26.4 11 Norte 22 Norte 0 -- -- 31
2019-09-27 12:00:00 24.6 11 Norte 25 Norte 0 -- -- 40
2019-09-27 11:00:00 22.8 5 Sudoeste 14 Norte 0 -- -- 45
2019-09-27 10:00:00 19.8 10 Norte 14 Norte 0 -- -- 50
2019-09-27 09:00:00 17 2 Norte 9 Norte 0 -- -- 57
2019-09-27 08:00:00 18.7 10 Noroeste 23 Norte 0 -- -- 53
2019-09-27 07:00:00 18.6 6 Nordeste 12 Norte 0 -- -- 48
2019-09-27 06:00:00 18.9 6 Nordeste 10 Oeste 0 -- -- 47
2019-09-27 05:00:00 19 3 Oeste 9 Oeste 0 -- -- 51
2019-09-27 04:00:00 19.1 5 Oeste 27 Norte 0 -- -- 50
2019-09-27 03:00:00 18.6 2 Sudoeste 10 Sudoeste 0 -- -- 54
2019-09-27 02:00:00 19.3 3 Sudoeste 26 Norte 0 -- -- 58
2019-09-27 01:00:00 22.2 19 Norte 25 Norte 0 -- -- 40
2019-09-27 00:00:00 21.9 3 Norte 13 Noroeste 0 -- -- 41
2019-09-26 23:00:00 23 4 Noroeste 7 Oeste 0 -- -- 39
2019-09-26 22:00:00 23.3 0 Calma 6 Sudoeste 0 -- -- 43
2019-09-26 21:00:00 23.8 2 Noroeste 6 Noroeste 0 -- -- 42
2019-09-26 20:00:00 27.5 6 Oeste 18 Oeste 0 -- -- 34
2019-09-26 19:00:00 29.1 12 Oeste 23 Sudoeste 0 -- -- 28
2019-09-26 18:00:00 29.6 12 Oeste 20 Sudoeste 0 -- -- 29
2019-09-26 17:00:00 29.5 13 Oeste 22 Sudoeste 0 -- -- 31
2019-09-26 16:00:00 29 12 Sudoeste 22 Sudoeste 0 -- -- 34
2019-09-26 15:00:00 28 10 Sudoeste 50 Sudoeste 0 -- -- 38
2019-09-26 14:00:00 26.8 8 Sur 16 Sudoeste 0 -- -- 40
2019-09-26 13:00:00 24.8 9 Este 17 Este 0 -- -- 44
2019-09-26 12:00:00 22.8 6 Este 12 Este 0 -- -- 50
2019-09-26 11:00:00 20.7 7 Sudeste 10 Sudeste 0 -- -- 57
2019-09-26 10:00:00 18.4 7 Este 11 Nordeste 0 -- -- 64
2019-09-26 09:00:00 16.1 3 Sudoeste 18 Noroeste 0 -- -- 73
2019-09-26 08:00:00 15.8 8 Nordeste 11 Norte 0 -- -- 69
2019-09-26 07:00:00 16.5 4 Sudeste 18 Norte 0 -- -- 70
2019-09-26 06:00:00 18 15 Norte 21 Norte 0 -- -- 60
2019-09-26 05:00:00 18.3 5 Nordeste 13 Nordeste 0 -- -- 59
2019-09-26 04:00:00 17.2 0 Calma 11 Nordeste 0 -- -- 62
2019-09-26 03:00:00 17.5 3 Oeste 11 Sudoeste 0 -- -- 61
2019-09-26 02:00:00 19.1 6 Oeste 27 Norte 0 -- -- 55
2019-09-26 01:00:00 19.8 19 Norte 24 Norte 0 -- -- 52
2019-09-26 00:00:00 20.4 12 Norte 20 Norte 0 -- -- 50
2019-09-25 23:00:00 20.8 12 Norte 16 Noroeste 0 -- -- 48
2019-09-25 22:00:00 21.3 3 Sudeste 18 Noroeste 0 -- -- 46
2019-09-25 21:00:00 22.5 12 Noroeste 20 Noroeste 0 -- -- 42
2019-09-25 20:00:00 24.5 7 Noroeste 25 Noroeste 0 -- -- 36
2019-09-25 19:00:00 25.4 14 Noroeste 35 Noroeste 0 -- -- 36
2019-09-25 18:00:00 25.8 21 Noroeste 36 Oeste 0 -- -- 36
2019-09-25 17:00:00 25.5 16 Norte 31 Noroeste 0 -- -- 36
2019-09-25 16:00:00 24.9 13 Noroeste 33 Noroeste 0 -- -- 38
2019-09-25 15:00:00 23.6 14 Noroeste 28 Noroeste 0 -- -- 42
2019-09-25 14:00:00 22.7 9 Noroeste 31 Norte 0 -- -- 46
2019-09-25 13:00:00 21.1 17 Noroeste 32 Noroeste 0 -- -- 49
2019-09-25 12:00:00 19.9 18 Norte 30 Norte 0 -- -- 50
2019-09-25 11:00:00 18.1 17 Noroeste 32 Noroeste 0 -- -- 57
2019-09-25 10:00:00 16.2 22 Noroeste 36 Noroeste 0 -- -- 63
2019-09-25 09:00:00 14.9 12 Noroeste 22 Noroeste 0 -- -- 67
2019-09-25 08:00:00 14.6 8 Norte 22 Norte 0 -- -- 68
2019-09-25 07:00:00 15.2 12 Noroeste 26 Noroeste 0 -- -- 72
2019-09-25 06:00:00 15.7 20 Norte 36 Norte 0 -- -- 72
2019-09-25 05:00:00 16 18 Noroeste 27 Noroeste 0 -- -- 71
2019-09-25 04:00:00 16.9 18 Noroeste 31 Noroeste 0 -- -- 67
2019-09-25 03:00:00 17.3 18 Noroeste 30 Noroeste 0 -- -- 66
2019-09-25 02:00:00 17.8 14 Noroeste 31 Norte 0 -- -- 63
2019-09-25 01:00:00 18.3 21 Noroeste 31 Noroeste 0 -- -- 63
2019-09-25 00:00:00 18.6 14 Oeste 34 Noroeste 0 -- -- 64
2019-09-24 23:00:00 19.6 20 Noroeste 33 Noroeste 0 -- -- 60
2019-09-24 22:00:00 20.2 12 Oeste 19 Oeste 0 -- -- 68
2019-09-24 21:00:00 21.2 12 Oeste 33 Oeste 0 -- -- 72
2019-09-24 20:00:00 22.1 17 Oeste 30 Oeste 0 -- -- 68
2019-09-24 19:00:00 23.2 26 Oeste 37 Oeste 0 -- -- 67
2019-09-24 18:00:00 23.7 21 Oeste 32 Oeste 0 -- -- 65
2019-09-24 17:00:00 24.1 17 Oeste 34 Oeste 0 -- -- 63
2019-09-24 16:00:00 25.9 21 Oeste 31 Sudoeste 0 -- -- 56
2019-09-24 15:00:00 24.3 15 Oeste 27 Oeste 0 -- -- 60
2019-09-24 14:00:00 24 17 Oeste 27 Oeste 0 -- -- 57
2019-09-24 13:00:00 22 12 Sudoeste 19 Sudoeste 0 -- -- 58
2019-09-24 12:00:00 20 14 Oeste 24 Oeste 0 -- -- 64
2019-09-24 11:00:00 18.7 12 Sudoeste 21 Sudoeste 0 -- -- 70
2019-09-24 10:00:00 16.4 5 Sur 9 Sur 0 -- -- 80
2019-09-24 09:00:00 14.9 0 Calma 4 Sudeste 0 -- -- 86
2019-09-24 08:00:00 14.4 0 Calma 3 Sur 0 -- -- 86
2019-09-24 07:00:00 14.8 0 Calma 3 Sudoeste 0 -- -- 83
2019-09-24 06:00:00 15.6 2 Sudoeste 5 Este 0 -- -- 77
2019-09-24 05:00:00 15.6 3 Sudeste 5 Sudeste 0 -- -- 78
2019-09-24 04:00:00 16.3 0 Calma 7 Sudoeste 0 -- -- 74
2019-09-24 03:00:00 17.3 3 Sur 11 Sudoeste 0 -- -- 68
2019-09-24 02:00:00 18.3 8 Sudoeste 17 Sudoeste 0 -- -- 64
2019-09-24 01:00:00 18.5 6 Sudoeste 13 Oeste 0 -- -- 57
2019-09-24 00:00:00 18.6 3 Nordeste 11 Sudoeste 0 -- -- 54
2019-09-23 23:00:00 19.7 0 Calma 6 Norte 0 -- -- 48
2019-09-23 22:00:00 20 5 Norte 7 Norte 0 -- -- 47
2019-09-23 21:00:00 20.9 6 Noroeste 9 Oeste 0 -- -- 43
2019-09-23 20:00:00 24.5 8 Oeste 18 Sudoeste 0 -- -- 36
2019-09-23 19:00:00 25.6 9 Sudoeste 19 Sudoeste 0 -- -- 32
2019-09-23 18:00:00 25.7 10 Sudoeste 24 Sudoeste 0 -- -- 35
2019-09-23 17:00:00 25.4 11 Oeste 25 Oeste 0 -- -- 37
2019-09-23 16:00:00 24.6 14 Oeste 21 Oeste 0 -- -- 35
2019-09-23 15:00:00 23.3 8 Sudoeste 18 Sudoeste 0 -- -- 43
2019-09-23 14:00:00 22.3 9 Sudoeste 16 Sudoeste 0 -- -- 43
2019-09-23 13:00:00 20.4 9 Sudoeste 17 Sudoeste 0 -- -- 53
2019-09-23 12:00:00 18.6 6 Sudoeste 12 Sur 0 -- -- 68
2019-09-23 11:00:00 16.5 3 Este 7 Sur 0 -- -- 75
2019-09-23 10:00:00 14.7 0 Calma 6 Nordeste 0 -- -- 85
2019-09-23 09:00:00 12.8 5 Nordeste 7 Nordeste 0 -- -- 87
2019-09-23 08:00:00 12.6 2 Sudoeste 4 Sudoeste 0 -- -- 85
2019-09-23 07:00:00 12.9 4 Nordeste 6 Nordeste 0 -- -- 82
2019-09-23 06:00:00 13.2 3 Sudeste 8 Este 0 -- -- 83
2019-09-23 05:00:00 13.3 3 Sudeste 5 Este 0 -- -- 82
2019-09-23 04:00:00 13.9 0 Calma 5 Sudoeste 0 -- -- 78
2019-09-23 03:00:00 14.4 0 Calma 8 Sur 0 -- -- 76
2019-09-23 02:00:00 15.2 4 Sudoeste 10 Nordeste 0 -- -- 73
2019-09-23 01:00:00 16 5 Este 10 Nordeste 0 -- -- 68
2019-09-23 00:00:00 16.5 6 Sudeste 8 Sudeste 0 -- -- 68
2019-09-22 23:00:00 16.8 2 Sudoeste 9 Sudoeste 0 -- -- 70
2019-09-22 22:00:00 17.7 3 Oeste 8 Oeste 0 -- -- 64
2019-09-22 21:00:00 18.3 4 Oeste 15 Oeste 0 -- -- 64
2019-09-22 20:00:00 20 10 Oeste 23 Oeste 0 -- -- 58
2019-09-22 19:00:00 21.3 17 Oeste 28 Oeste 0 -- -- 54
2019-09-22 18:00:00 21.9 15 Oeste 31 Oeste 0 -- -- 49
2019-09-22 17:00:00 22 19 Oeste 36 Sudoeste 0 -- -- 55
2019-09-22 16:00:00 21.5 17 Oeste 26 Oeste 0 -- -- 60
2019-09-22 15:00:00 19.6 14 Oeste 26 Oeste 0 -- -- 64
2019-09-22 14:00:00 18.5 19 Oeste 27 Oeste 0 -- -- 73
2019-09-22 13:00:00 17.8 19 Oeste 26 Oeste 0 -- -- 79
2019-09-22 12:00:00 16.3 15 Oeste 23 Oeste 0 -- -- 85
2019-09-22 11:00:00 15.2 7 Oeste 23 Sudoeste 0 -- -- 89
2019-09-22 10:00:00 14.9 12 Sudoeste 23 Oeste 0 -- -- 91
2019-09-22 09:00:00 13.4 3 Oeste 19 Sudoeste 0 -- -- 91
2019-09-22 08:00:00 12.7 8 Sudoeste 19 Sudoeste 0 -- -- 94
2019-09-22 07:00:00 13 6 Sur 21 Oeste 0 -- -- 93
2019-09-22 06:00:00 13.6 10 Oeste 26 Oeste 0 -- -- 93
2019-09-22 05:00:00 14.5 18 Oeste 28 Oeste 0 -- -- 93
2019-09-22 04:00:00 16.2 18 Oeste 30 Oeste 0 -- -- 92
2019-09-22 03:00:00 17.7 20 Sudoeste 32 Sudoeste 0 -- -- 94
2019-09-22 02:00:00 17.7 17 Sudoeste 34 Sudoeste 0 -- -- 94
2019-09-22 01:00:00 18 13 Sudoeste 35 Sudoeste 0 -- -- 95
2019-09-22 00:00:00 18.2 25 Sudoeste 38 Sudoeste 5.8 -- -- 95
2019-09-21 23:00:00 18.7 12 Sudoeste 21 Sudoeste 5.6 -- -- 94
2019-09-21 22:00:00 18.1 5 Este 19 Este 0.2 -- -- 95
2019-09-21 21:00:00 18.2 13 Este 23 Este 0 -- -- 94
2019-09-21 20:00:00 18.4 7 Este 17 Sudeste 0.2 -- -- 94
2019-09-21 19:00:00 18.5 7 Este 15 Sudeste 0.2 -- -- 94
2019-09-21 18:00:00 18.1 9 Sudeste 24 Este 0.2 -- -- 95
2019-09-21 17:00:00 17.4 8 Este 18 Este 1.4 -- -- 96
2019-09-21 16:00:00 16.7 6 Este 17 Este 0.6 -- -- 94
2019-09-21 15:00:00 16.2 7 Sudeste 21 Este 1.8 -- -- 94
2019-09-21 14:00:00 16 7 Sudeste 27 Sudeste 3 -- -- 93
2019-09-21 13:00:00 16.3 9 Sur 30 Sudeste 3.6 -- -- 92
2019-09-21 12:00:00 17.4 13 Sudeste 26 Sudeste 0.6 -- -- 86
2019-09-21 11:00:00 17.4 12 Sudeste 20 Sudeste 1.8 -- -- 91
2019-09-21 10:00:00 17 7 Este 17 Este 3 -- -- 90
2019-09-21 09:00:00 17.3 8 Sudeste 16 Sudeste 1.8 -- -- 86
2019-09-21 08:00:00 17.8 7 Sudeste 13 Este 0.2 -- -- 79
2019-09-21 07:00:00 17.8 5 Este 15 Este 0 -- -- 75
2019-09-21 06:00:00 17.9 12 Este 17 Este 0 -- -- 72
2019-09-21 05:00:00 18.4 5 Este 8 Este 0 -- -- 69
2019-09-21 04:00:00 18.4 3 Nordeste 6 Este 0 -- -- 66
2019-09-21 03:00:00 18.1 2 Nordeste 6 Este 0 -- -- 65
2019-09-21 02:00:00 17.8 0 Calma 5 Nordeste 0 -- -- 63
2019-09-21 01:00:00 18.8 2 Noroeste 13 Sur 0 -- -- 59
2019-09-21 00:00:00 19.4 4 Oeste 9 Sudoeste 0 -- -- 57
2019-09-20 23:00:00 20.2 7 Sudoeste 19 Oeste 0 -- -- 58
2019-09-20 22:00:00 20.9 11 Oeste 26 Sudoeste 0 -- -- 56
2019-09-20 21:00:00 22.3 14 Sudoeste 25 Sudoeste 0 -- -- 53
2019-09-20 20:00:00 23.4 13 Sur 26 Sudoeste 0 -- -- 49
2019-09-20 19:00:00 24.5 16 Sudoeste 27 Sudoeste 0 -- -- 44
2019-09-20 18:00:00 25.4 16 Sudoeste 31 Sudoeste 0 -- -- 42
2019-09-20 17:00:00 26.1 21 Sudoeste 33 Sur 0 -- -- 36
2019-09-20 16:00:00 27 21 Sur 39 Sur 0 -- -- 39
2019-09-20 15:00:00 27 21 Sudoeste 34 Sur 0 -- -- 39
2019-09-20 14:00:00 27.1 19 Sur 35 Sudoeste 0 -- -- 39
2019-09-20 13:00:00 25.9 15 Sur 27 Sur 0 -- -- 42
2019-09-20 12:00:00 24.2 15 Sur 29 Sudeste 0 -- -- 49
2019-09-20 11:00:00 22.3 8 Sudeste 17 Sudeste 0 -- -- 54
2019-09-20 10:00:00 20.3 7 Nordeste 14 Este 0 -- -- 62
2019-09-20 09:00:00 18.6 8 Nordeste 13 Nordeste 0 -- -- 68
2019-09-20 08:00:00 18.2 7 Nordeste 11 Este 0 -- -- 69
2019-09-20 07:00:00 18.1 8 Este 11 Este 0 -- -- 71
2019-09-20 06:00:00 19.2 8 Sudoeste 19 Sudoeste 0 -- -- 67
2019-09-20 05:00:00 19.1 11 Sudoeste 17 Sudoeste 0 -- -- 65
2019-09-20 04:00:00 19.7 8 Sudoeste 11 Sudoeste 0 -- -- 62
2019-09-20 03:00:00 20.9 4 Sudeste 15 Oeste 0 -- -- 57
2019-09-20 02:00:00 21.4 6 Sudoeste 12 Sudoeste 0 -- -- 55
2019-09-20 01:00:00 22.4 4 Sudoeste 13 Sudeste 0 -- -- 51
2019-09-20 00:00:00 23.1 5 Este 14 Oeste -- -- -- 49
2019-09-19 23:00:00 24.6 7 Este 27 Oeste 0 -- -- 45
2019-09-19 22:00:00 25.1 6 Oeste 10 Noroeste 0 -- -- 39
2019-09-19 21:00:00 26.3 3 Oeste 11 Sudoeste 0 -- -- 37
2019-09-19 20:00:00 28.3 9 Sudoeste 15 Sudoeste 0 -- -- 33
2019-09-19 19:00:00 30 8 Sur 23 Sudeste 0 -- -- 29
2019-09-19 18:00:00 30.8 10 Sur 22 Sur 0 -- -- 31
2019-09-19 17:00:00 30.3 10 Sur 23 Sudoeste 0 -- -- 33
2019-09-19 16:00:00 30.1 4 Sudoeste 21 Sur 0 -- -- 36
2019-09-19 15:00:00 29.6 11 Sur 19 Sudoeste 0 -- -- 37
2019-09-19 14:00:00 28.2 9 Sudeste 16 Sudeste 0 -- -- 42
2019-09-19 13:00:00 26.7 9 Sudeste 15 Sudeste 0 -- -- 46
2019-09-19 12:00:00 24.4 4 Sudeste 12 Sur 0 -- -- 55
2019-09-19 11:00:00 22.7 7 Sudeste 13 Sudeste 0 -- -- 63
2019-09-19 10:00:00 20.5 4 Este 7 Este 0 -- -- 70
2019-09-19 09:00:00 18.2 2 Oeste 5 Oeste 0 -- -- 77
2019-09-19 08:00:00 18.2 3 Sudoeste 5 Sudoeste 0 -- -- 74
2019-09-19 07:00:00 18.6 2 Nordeste 5 Nordeste 0 -- -- 70
2019-09-19 06:00:00 18.9 3 Este 9 Este 0 -- -- 67
2019-09-19 05:00:00 19.5 5 Este 8 Sudeste 0 -- -- 65
2019-09-19 04:00:00 20.5 4 Sur 8 Sur 0 -- -- 60
2019-09-19 03:00:00 21.6 7 Sur 14 Sur 0 -- -- 55
2019-09-19 02:00:00 21.7 4 Este 9 Sur 0 -- -- 53
2019-09-19 01:00:00 22.8 4 Sudeste 13 Oeste 0 -- -- 49
2019-09-19 00:00:00 23.8 4 Sudoeste 6 Sudoeste 0 -- -- 44
2019-09-18 23:00:00 24.4 0 Calma 5 Este 0 -- -- 46
2019-09-18 22:00:00 24.3 3 Este 10 Norte 0 -- -- 51
2019-09-18 21:00:00 25.6 6 Nordeste 8 Nordeste 0 -- -- 44
2019-09-18 20:00:00 28.2 4 Sur 9 Sudeste 0 -- -- 37
2019-09-18 19:00:00 29.4 4 Sudeste 12 Sur 0 -- -- 36
2019-09-18 18:00:00 29.8 6 Oeste 17 Sudoeste 0 -- -- 37
2019-09-18 17:00:00 29.5 5 Sur 19 Sur 0 -- -- 38
2019-09-18 16:00:00 29.3 9 Sudeste 19 Sur 0 -- -- 40
2019-09-18 15:00:00 28.3 7 Sudeste 19 Sur 0 -- -- 43
2019-09-18 14:00:00 27.2 5 Sur 14 Sudeste 0 -- -- 46
2019-09-18 13:00:00 25.4 6 Sudeste 15 Sudeste 0 -- -- 50
2019-09-18 12:00:00 23.7 7 Sudeste 18 Sudeste 0 -- -- 54
2019-09-18 11:00:00 22.1 14 Este 22 Este 0 -- -- 59
2019-09-18 10:00:00 19.8 12 Este 18 Este 0 -- -- 67
2019-09-18 09:00:00 17.6 12 Este 17 Nordeste 0 -- -- 74
2019-09-18 08:00:00 16.8 8 Nordeste 16 Nordeste 0 -- -- 74
2019-09-18 07:00:00 16.8 9 Nordeste 17 Nordeste 0 -- -- 73
2019-09-18 06:00:00 17.5 10 Nordeste 15 Nordeste 0 -- -- 67
2019-09-18 05:00:00 17.4 7 Nordeste 11 Nordeste 0 -- -- 68
2019-09-18 04:00:00 17.9 8 Nordeste 13 Nordeste 0 -- -- 66
2019-09-18 03:00:00 19 7 Norte 31 Norte 0 -- -- 62
2019-09-18 02:00:00 18.1 5 Este 9 Sudeste 0 -- -- 72
2019-09-18 01:00:00 19.4 10 Este 24 Nordeste 0 -- -- 63
2019-09-18 00:00:00 19.2 14 Este 31 Nordeste 0 -- -- 66
2019-09-17 23:00:00 19.4 24 Este 40 Nordeste 0 -- -- 65
2019-09-17 22:00:00 20.2 16 Nordeste 30 Nordeste 0 -- -- 63
2019-09-17 21:00:00 20.8 18 Nordeste 32 Norte 0 -- -- 61